sensor_id;sensor_type;location;lat;lon;timestamp;pressure;altitude;pressure_sealevel;temperature;humidity
9521;BME280;4798;41.574;23.734;2022-12-11T00:01:13;93781.66;;;12.63;100.00
9521;BME280;4798;41.574;23.734;2022-12-11T00:03:42;93843.34;;;12.86;100.00
9521;BME280;4798;41.574;23.734;2022-12-11T00:06:13;93832.97;;;12.93;100.00
9521;BME280;4798;41.574;23.734;2022-12-11T00:08:42;93860.78;;;13.04;100.00
9521;BME280;4798;41.574;23.734;2022-12-11T00:11:12;93854.69;;;13.12;100.00
9521;BME280;4798;41.574;23.734;2022-12-11T00:13:42;93833.41;;;13.04;100.00
9521;BME280;4798;41.574;23.734;2022-12-11T00:16:10;93860.63;;;13.18;100.00
9521;BME280;4798;41.574;23.734;2022-12-11T00:18:39;93866.66;;;13.27;100.00
9521;BME280;4798;41.574;23.734;2022-12-11T00:21:11;93847.50;;;13.13;100.00
9521;BME280;4798;41.574;23.734;2022-12-11T00:23:40;93846.34;;;13.22;100.00
9521;BME280;4798;41.574;23.734;2022-12-11T00:26:12;93852.16;;;13.16;100.00
9521;BME280;4798;41.574;23.734;2022-12-11T00:28:43;93856.56;;;13.12;100.00
9521;BME280;4798;41.574;23.734;2022-12-11T00:31:16;93857.97;;;13.18;100.00
9521;BME280;4798;41.574;23.734;2022-12-11T00:33:45;93854.53;;;13.09;100.00
9521;BME280;4798;41.574;23.734;2022-12-11T00:36:16;93857.06;;;12.97;100.00
9521;BME280;4798;41.574;23.734;2022-12-11T00:38:45;93819.38;;;12.95;100.00
9521;BME280;4798;41.574;23.734;2022-12-11T00:41:15;93808.63;;;12.83;100.00
9521;BME280;4798;41.574;23.734;2022-12-11T00:43:45;93790.97;;;12.78;100.00
9521;BME280;4798;41.574;23.734;2022-12-11T00:46:14;93738.69;;;12.61;100.00
9521;BME280;4798;41.574;23.734;2022-12-11T00:48:42;93779.16;;;12.96;100.00
9521;BME280;4798;41.574;23.734;2022-12-11T00:51:12;93793.53;;;13.04;100.00
9521;BME280;4798;41.574;23.734;2022-12-11T00:53:40;93797.66;;;12.93;100.00
9521;BME280;4798;41.574;23.734;2022-12-11T00:56:10;93797.50;;;12.89;100.00
9521;BME280;4798;41.574;23.734;2022-12-11T00:58:39;93804.94;;;13.04;100.00
9521;BME280;4798;41.574;23.734;2022-12-11T01:01:10;93777.88;;;13.11;100.00
9521;BME280;4798;41.574;23.734;2022-12-11T01:03:39;93760.06;;;13.32;100.00
9521;BME280;4798;41.574;23.734;2022-12-11T01:06:12;93747.75;;;13.48;100.00
9521;BME280;4798;41.574;23.734;2022-12-11T01:08:41;93727.34;;;13.52;100.00
9521;BME280;4798;41.574;23.734;2022-12-11T01:11:11;93679.19;;;13.45;100.00
9521;BME280;4798;41.574;23.734;2022-12-11T01:13:40;93675.50;;;13.58;100.00
9521;BME280;4798;41.574;23.734;2022-12-11T01:16:11;93630.28;;;13.17;100.00
9521;BME280;4798;41.574;23.734;2022-12-11T01:18:41;93679.00;;;13.50;100.00
9521;BME280;4798;41.574;23.734;2022-12-11T01:21:11;93678.66;;;13.52;100.00
9521;BME280;4798;41.574;23.734;2022-12-11T01:23:40;93657.38;;;13.31;100.00
9521;BME280;4798;41.574;23.734;2022-12-11T01:26:10;93663.03;;;13.50;100.00
9521;BME280;4798;41.574;23.734;2022-12-11T01:28:39;93652.84;;;13.52;100.00
9521;BME280;4798;41.574;23.734;2022-12-11T01:31:07;93660.97;;;13.68;100.00
9521;BME280;4798;41.574;23.734;2022-12-11T01:33:37;93645.59;;;13.73;100.00
9521;BME280;4798;41.574;23.734;2022-12-11T01:36:08;93620.88;;;13.85;100.00
9521;BME280;4798;41.574;23.734;2022-12-11T01:38:36;93625.09;;;13.86;100.00
9521;BME280;4798;41.574;23.734;2022-12-11T01:41:05;93620.22;;;13.88;100.00
9521;BME280;4798;41.574;23.734;2022-12-11T01:43:33;93615.25;;;13.98;100.00
9521;BME280;4798;41.574;23.734;2022-12-11T01:46:02;93620.22;;;13.88;100.00
9521;BME280;4798;41.574;23.734;2022-12-11T01:48:31;93646.47;;;13.77;100.00
9521;BME280;4798;41.574;23.734;2022-12-11T01:51:10;93637.91;;;13.72;100.00
9521;BME280;4798;41.574;23.734;2022-12-11T01:53:40;93621.84;;;13.68;100.00
9521;BME280;4798;41.574;23.734;2022-12-11T01:56:10;93591.78;;;13.68;100.00
9521;BME280;4798;41.574;23.734;2022-12-11T01:58:41;93608.13;;;13.90;100.00
9521;BME280;4798;41.574;23.734;2022-12-11T02:01:14;93583.72;;;13.88;100.00
9521;BME280;4798;41.574;23.734;2022-12-11T02:03:45;93580.94;;;13.97;100.00
9521;BME280;4798;41.574;23.734;2022-12-11T02:06:34;93547.53;;;13.99;100.00
9521;BME280;4798;41.574;23.734;2022-12-11T02:09:04;93570.19;;;14.06;100.00
9521;BME280;4798;41.574;23.734;2022-12-11T02:11:52;93575.28;;;14.11;100.00
9521;BME280;4798;41.574;23.734;2022-12-11T02:14:27;93572.84;;;14.18;100.00
9521;BME280;4798;41.574;23.734;2022-12-11T02:17:03;93573.75;;;14.34;100.00
9521;BME280;4798;41.574;23.734;2022-12-11T02:19:46;93539.41;;;14.20;100.00
9521;BME280;4798;41.574;23.734;2022-12-11T02:22:25;93546.97;;;14.42;100.00
9521;BME280;4798;41.574;23.734;2022-12-11T02:25:03;93556.19;;;14.45;100.00
9521;BME280;4798;41.574;23.734;2022-12-11T02:27:40;93566.38;;;14.55;100.00
9521;BME280;4798;41.574;23.734;2022-12-11T02:30:14;93582.38;;;14.55;100.00
9521;BME280;4798;41.574;23.734;2022-12-11T02:32:46;93583.94;;;14.56;100.00
9521;BME280;4798;41.574;23.734;2022-12-11T02:35:19;93588.63;;;14.59;100.00
9521;BME280;4798;41.574;23.734;2022-12-11T02:37:53;93589.06;;;14.49;100.00
9521;BME280;4798;41.574;23.734;2022-12-11T02:40:25;93610.84;;;14.39;100.00
9521;BME280;4798;41.574;23.734;2022-12-11T02:42:57;93605.94;;;14.41;100.00
9521;BME280;4798;41.574;23.734;2022-12-11T02:45:28;93618.28;;;14.33;100.00
9521;BME280;4798;41.574;23.734;2022-12-11T02:47:59;93601.19;;;14.34;100.00
9521;BME280;4798;41.574;23.734;2022-12-11T02:50:30;93611.50;;;14.36;100.00
9521;BME280;4798;41.574;23.734;2022-12-11T02:53:02;93603.28;;;14.41;100.00
9521;BME280;4798;41.574;23.734;2022-12-11T02:55:31;93602.72;;;14.47;100.00
9521;BME280;4798;41.574;23.734;2022-12-11T02:58:07;93602.41;;;14.37;100.00
9521;BME280;4798;41.574;23.734;2022-12-11T03:00:38;93623.81;;;14.40;100.00
9521;BME280;4798;41.574;23.734;2022-12-11T03:03:06;93610.50;;;14.40;100.00
9521;BME280;4798;41.574;23.734;2022-12-11T03:05:35;93608.03;;;14.47;100.00
9521;BME280;4798;41.574;23.734;2022-12-11T03:08:03;93621.28;;;14.44;100.00
9521;BME280;4798;41.574;23.734;2022-12-11T03:10:32;93549.66;;;14.06;100.00
9521;BME280;4798;41.574;23.734;2022-12-11T03:13:01;93619.94;;;14.50;100.00
9521;BME280;4798;41.574;23.734;2022-12-11T03:15:34;93628.63;;;14.47;100.00
9521;BME280;4798;41.574;23.734;2022-12-11T03:18:14;93636.16;;;14.45;100.00
9521;BME280;4798;41.574;23.734;2022-12-11T03:20:50;93621.50;;;14.39;100.00
9521;BME280;4798;41.574;23.734;2022-12-11T03:23:29;93604.38;;;14.40;100.00
9521;BME280;4798;41.574;23.734;2022-12-11T03:26:01;93612.28;;;14.36;100.00
9521;BME280;4798;41.574;23.734;2022-12-11T03:28:34;93601.28;;;14.50;100.00
9521;BME280;4798;41.574;23.734;2022-12-11T03:31:08;93612.72;;;14.50;100.00
9521;BME280;4798;41.574;23.734;2022-12-11T03:33:41;93585.28;;;14.26;100.00
9521;BME280;4798;41.574;23.734;2022-12-11T03:36:13;93629.72;;;14.46;100.00
9521;BME280;4798;41.574;23.734;2022-12-11T03:38:47;93624.38;;;14.58;100.00
9521;BME280;4798;41.574;23.734;2022-12-11T03:41:19;93604.50;;;14.55;100.00
9521;BME280;4798;41.574;23.734;2022-12-11T03:43:52;93613.81;;;14.61;100.00
9521;BME280;4798;41.574;23.734;2022-12-11T03:46:23;93602.59;;;14.56;100.00
9521;BME280;4798;41.574;23.734;2022-12-11T03:48:59;93616.50;;;14.49;100.00
9521;BME280;4798;41.574;23.734;2022-12-11T03:51:30;93594.94;;;14.30;100.00
9521;BME280;4798;41.574;23.734;2022-12-11T03:54:00;93613.06;;;14.37;100.00
9521;BME280;4798;41.574;23.734;2022-12-11T03:56:30;93602.28;;;14.21;100.00
9521;BME280;4798;41.574;23.734;2022-12-11T03:59:00;93637.13;;;14.16;100.00
9521;BME280;4798;41.574;23.734;2022-12-11T04:01:29;93647.88;;;14.08;100.00
9521;BME280;4798;41.574;23.734;2022-12-11T04:03:59;93646.66;;;14.17;100.00
9521;BME280;4798;41.574;23.734;2022-12-11T04:06:27;93643.63;;;13.94;100.00
9521;BME280;4798;41.574;23.734;2022-12-11T04:08:55;93662.25;;;13.82;100.00
9521;BME280;4798;41.574;23.734;2022-12-11T04:11:24;93662.16;;;13.91;100.00
9521;BME280;4798;41.574;23.734;2022-12-11T04:14:07;93651.53;;;14.03;100.00
9521;BME280;4798;41.574;23.734;2022-12-11T04:16:53;93660.72;;;13.93;100.00
9521;BME280;4798;41.574;23.734;2022-12-11T04:19:23;93656.94;;;14.07;100.00
9521;BME280;4798;41.574;23.734;2022-12-11T04:22:09;93650.97;;;14.10;100.00
9521;BME280;4798;41.574;23.734;2022-12-11T04:24:55;93653.41;;;14.02;100.00
9521;BME280;4798;41.574;23.734;2022-12-11T04:27:23;93664.53;;;14.17;100.00
9521;BME280;4798;41.574;23.734;2022-12-11T04:30:12;93666.06;;;14.06;100.00
9521;BME280;4798;41.574;23.734;2022-12-11T04:32:41;93667.72;;;13.98;100.00
9521;BME280;4798;41.574;23.734;2022-12-11T04:35:11;93674.59;;;13.99;100.00
9521;BME280;4798;41.574;23.734;2022-12-11T04:37:40;93668.59;;;13.90;100.00
9521;BME280;4798;41.574;23.734;2022-12-11T04:40:11;93672.19;;;14.06;100.00
9521;BME280;4798;41.574;23.734;2022-12-11T04:42:39;93672.63;;;14.20;100.00
9521;BME280;4798;41.574;23.734;2022-12-11T04:45:09;93665.22;;;14.26;100.00
9521;BME280;4798;41.574;23.734;2022-12-11T04:47:39;93667.44;;;14.24;100.00
9521;BME280;4798;41.574;23.734;2022-12-11T04:50:10;93675.50;;;14.15;100.00
9521;BME280;4798;41.574;23.734;2022-12-11T04:52:40;93668.88;;;14.21;100.00
9521;BME280;4798;41.574;23.734;2022-12-11T04:55:09;93676.00;;;14.29;100.00
9521;BME280;4798;41.574;23.734;2022-12-11T04:57:38;93671.44;;;14.30;100.00
9521;BME280;4798;41.574;23.734;2022-12-11T05:00:09;93676.31;;;14.16;100.00
9521;BME280;4798;41.574;23.734;2022-12-11T05:02:39;93678.41;;;14.10;100.00
9521;BME280;4798;41.574;23.734;2022-12-11T05:05:09;93678.75;;;14.09;100.00
9521;BME280;4798;41.574;23.734;2022-12-11T05:07:40;93655.06;;;13.95;100.00
9521;BME280;4798;41.574;23.734;2022-12-11T05:10:09;93698.06;;;14.18;100.00
9521;BME280;4798;41.574;23.734;2022-12-11T05:12:37;93714.91;;;13.77;100.00
9521;BME280;4798;41.574;23.734;2022-12-11T05:15:06;93719.72;;;13.83;100.00
9521;BME280;4798;41.574;23.734;2022-12-11T05:17:35;93714.00;;;13.93;100.00
9521;BME280;4798;41.574;23.734;2022-12-11T05:20:05;93702.66;;;13.96;100.00
9521;BME280;4798;41.574;23.734;2022-12-11T05:22:33;93699.56;;;14.07;100.00
9521;BME280;4798;41.574;23.734;2022-12-11T05:25:03;93690.53;;;13.87;100.00
9521;BME280;4798;41.574;23.734;2022-12-11T05:27:32;93720.16;;;13.85;100.00
9521;BME280;4798;41.574;23.734;2022-12-11T05:30:00;93742.53;;;13.72;100.00
9521;BME280;4798;41.574;23.734;2022-12-11T05:32:28;93726.38;;;13.89;100.00
9521;BME280;4798;41.574;23.734;2022-12-11T05:34:57;93724.53;;;14.02;100.00
9521;BME280;4798;41.574;23.734;2022-12-11T05:37:25;93716.47;;;14.11;100.00
9521;BME280;4798;41.574;23.734;2022-12-11T05:39:53;93657.78;;;13.74;100.00
9521;BME280;4798;41.574;23.734;2022-12-11T05:42:23;93727.03;;;13.86;100.00
9521;BME280;4798;41.574;23.734;2022-12-11T05:44:54;93737.50;;;13.91;100.00
9521;BME280;4798;41.574;23.734;2022-12-11T05:47:23;93732.69;;;13.85;100.00
9521;BME280;4798;41.574;23.734;2022-12-11T05:49:51;93716.78;;;13.76;100.00
9521;BME280;4798;41.574;23.734;2022-12-11T05:52:19;93716.38;;;13.86;100.00
9521;BME280;4798;41.574;23.734;2022-12-11T05:54:48;93725.75;;;13.92;100.00
9521;BME280;4798;41.574;23.734;2022-12-11T05:57:16;93729.06;;;13.89;100.00
9521;BME280;4798;41.574;23.734;2022-12-11T05:59:46;93726.72;;;13.88;100.00
9521;BME280;4798;41.574;23.734;2022-12-11T06:02:14;93743.56;;;13.59;100.00
9521;BME280;4798;41.574;23.734;2022-12-11T06:04:43;93743.31;;;13.52;100.00
9521;BME280;4798;41.574;23.734;2022-12-11T06:07:11;93747.75;;;13.48;100.00
9521;BME280;4798;41.574;23.734;2022-12-11T06:09:40;93743.56;;;13.59;100.00
9521;BME280;4798;41.574;23.734;2022-12-11T06:12:08;93739.41;;;13.70;100.00
9521;BME280;4798;41.574;23.734;2022-12-11T06:14:37;93725.78;;;13.51;100.00
9521;BME280;4798;41.574;23.734;2022-12-11T06:17:08;93731.63;;;13.45;100.00
9521;BME280;4798;41.574;23.734;2022-12-11T06:19:36;93736.81;;;13.41;100.00
9521;BME280;4798;41.574;23.734;2022-12-11T06:22:04;93752.59;;;13.46;100.00
9521;BME280;4798;41.574;23.734;2022-12-11T06:24:33;93755.97;;;13.55;100.00
9521;BME280;4798;41.574;23.734;2022-12-11T06:27:01;93741.63;;;13.68;100.00
9521;BME280;4798;41.574;23.734;2022-12-11T06:29:29;93738.97;;;13.48;100.00
9521;BME280;4798;41.574;23.734;2022-12-11T06:31:57;93737.09;;;13.27;100.00
9521;BME280;4798;41.574;23.734;2022-12-11T06:34:27;93733.78;;;13.30;100.00
9521;BME280;4798;41.574;23.734;2022-12-11T06:36:56;93750.13;;;13.41;100.00
9521;BME280;4798;41.574;23.734;2022-12-11T06:39:24;93739.78;;;13.19;100.00
9521;BME280;4798;41.574;23.734;2022-12-11T06:41:52;93742.47;;;12.90;100.00
9521;BME280;4798;41.574;23.734;2022-12-11T06:44:20;93744.41;;;13.10;100.00
9521;BME280;4798;41.574;23.734;2022-12-11T06:46:49;93747.31;;;13.17;100.00
9521;BME280;4798;41.574;23.734;2022-12-11T06:49:17;93726.44;;;13.07;100.00
9521;BME280;4798;41.574;23.734;2022-12-11T06:51:47;93743.38;;;13.44;100.00
9521;BME280;4798;41.574;23.734;2022-12-11T06:54:15;93739.34;;;13.17;100.00
9521;BME280;4798;41.574;23.734;2022-12-11T06:56:43;93756.47;;;12.99;100.00
9521;BME280;4798;41.574;23.734;2022-12-11T06:59:12;93751.38;;;13.23;100.00
9521;BME280;4798;41.574;23.734;2022-12-11T07:01:40;93760.13;;;13.44;100.00
9521;BME280;4798;41.574;23.734;2022-12-11T07:04:08;93758.44;;;13.40;100.00
9521;BME280;4798;41.574;23.734;2022-12-11T07:06:36;93751.75;;;13.75;100.00
9521;BME280;4798;41.574;23.734;2022-12-11T07:09:06;93747.00;;;13.80;100.00
9521;BME280;4798;41.574;23.734;2022-12-11T07:11:35;93735.97;;;13.70;100.00
9521;BME280;4798;41.574;23.734;2022-12-11T07:14:04;93735.50;;;13.88;100.00
9521;BME280;4798;41.574;23.734;2022-12-11T07:16:32;93728.84;;;13.94;100.00
9521;BME280;4798;41.574;23.734;2022-12-11T07:19:00;93727.91;;;14.11;100.00
9521;BME280;4798;41.574;23.734;2022-12-11T07:21:29;93726.00;;;14.12;100.00
9521;BME280;4798;41.574;23.734;2022-12-11T07:23:57;93697.38;;;14.09;100.00
9521;BME280;4798;41.574;23.734;2022-12-11T07:26:27;93710.34;;;13.98;100.00
9521;BME280;4798;41.574;23.734;2022-12-11T07:28:56;93644.09;;;13.64;100.00
9521;BME280;4798;41.574;23.734;2022-12-11T07:31:26;93717.91;;;13.75;100.00
9521;BME280;4798;41.574;23.734;2022-12-11T07:33:57;93712.63;;;13.87;100.00
9521;BME280;4798;41.574;23.734;2022-12-11T07:36:26;93697.94;;;14.14;100.00
9521;BME280;4798;41.574;23.734;2022-12-11T07:38:54;93693.44;;;14.27;100.00
9521;BME280;4798;41.574;23.734;2022-12-11T07:41:22;93685.66;;;14.22;100.00
9521;BME280;4798;41.574;23.734;2022-12-11T07:43:55;93696.56;;;14.53;100.00
9521;BME280;4798;41.574;23.734;2022-12-11T07:46:25;93687.34;;;14.38;100.00
9521;BME280;4798;41.574;23.734;2022-12-11T07:48:54;93655.72;;;14.49;100.00
9521;BME280;4798;41.574;23.734;2022-12-11T07:51:23;93674.13;;;14.66;100.00
9521;BME280;4798;41.574;23.734;2022-12-11T07:53:55;93666.78;;;14.75;100.00
9521;BME280;4798;41.574;23.734;2022-12-11T07:56:25;93568.72;;;14.20;100.00
9521;BME280;4798;41.574;23.734;2022-12-11T07:58:55;93592.88;;;14.88;100.00
9521;BME280;4798;41.574;23.734;2022-12-11T08:01:27;93668.38;;;15.68;100.00
9521;BME280;4798;41.574;23.734;2022-12-11T08:03:55;93668.47;;;16.30;100.00
9521;BME280;4798;41.574;23.734;2022-12-11T08:06:26;93632.53;;;16.59;100.00
9521;BME280;4798;41.574;23.734;2022-12-11T08:08:55;93640.75;;;17.01;100.00
9521;BME280;4798;41.574;23.734;2022-12-11T08:11:24;93621.81;;;17.29;100.00
9521;BME280;4798;41.574;23.734;2022-12-11T08:13:52;93635.78;;;17.38;100.00
9521;BME280;4798;41.574;23.734;2022-12-11T08:16:22;93643.13;;;17.06;100.00
9521;BME280;4798;41.574;23.734;2022-12-11T08:18:51;93639.03;;;16.93;100.00
9521;BME280;4798;41.574;23.734;2022-12-11T08:21:21;93629.03;;;17.25;100.00
9521;BME280;4798;41.574;23.734;2022-12-11T08:23:50;93611.88;;;17.48;100.00
9521;BME280;4798;41.574;23.734;2022-12-11T08:26:21;93630.00;;;17.93;100.00
9521;BME280;4798;41.574;23.734;2022-12-11T08:28:50;93621.09;;;18.31;100.00
9521;BME280;4798;41.574;23.734;2022-12-11T08:31:19;93622.63;;;17.67;100.00
9521;BME280;4798;41.574;23.734;2022-12-11T08:33:49;93622.88;;;18.23;99.46
9521;BME280;4798;41.574;23.734;2022-12-11T08:36:19;93614.34;;;17.95;99.24
9521;BME280;4798;41.574;23.734;2022-12-11T08:38:48;93604.91;;;17.82;100.00
9521;BME280;4798;41.574;23.734;2022-12-11T08:41:19;93603.63;;;17.76;100.00
9521;BME280;4798;41.574;23.734;2022-12-11T08:43:48;93600.56;;;17.97;100.00
9521;BME280;4798;41.574;23.734;2022-12-11T08:46:18;93602.34;;;18.57;100.00
9521;BME280;4798;41.574;23.734;2022-12-11T08:48:47;93597.63;;;18.99;99.34
9521;BME280;4798;41.574;23.734;2022-12-11T08:51:19;93546.19;;;18.45;95.38
9521;BME280;4798;41.574;23.734;2022-12-11T08:53:48;93597.00;;;19.10;96.42
9521;BME280;4798;41.574;23.734;2022-12-11T08:56:19;93539.63;;;18.65;94.85
9521;BME280;4798;41.574;23.734;2022-12-11T08:58:47;93597.34;;;19.08;99.80
9521;BME280;4798;41.574;23.734;2022-12-11T09:01:17;93588.31;;;18.18;100.00
9521;BME280;4798;41.574;23.734;2022-12-11T09:03:47;93587.75;;;18.09;100.00
9521;BME280;4798;41.574;23.734;2022-12-11T09:06:19;93596.88;;;18.05;100.00
9521;BME280;4798;41.574;23.734;2022-12-11T09:08:48;93605.19;;;17.77;100.00
9521;BME280;4798;41.574;23.734;2022-12-11T09:11:20;93592.63;;;18.04;100.00
9521;BME280;4798;41.574;23.734;2022-12-11T09:13:49;93599.25;;;18.10;100.00
9521;BME280;4798;41.574;23.734;2022-12-11T09:16:20;93595.38;;;17.85;100.00
9521;BME280;4798;41.574;23.734;2022-12-11T09:18:50;93585.38;;;18.04;100.00
9521;BME280;4798;41.574;23.734;2022-12-11T09:21:22;93502.50;;;17.50;100.00
9521;BME280;4798;41.574;23.734;2022-12-11T09:23:52;93583.44;;;18.24;100.00
9521;BME280;4798;41.574;23.734;2022-12-11T09:26:22;93577.59;;;18.67;100.00
9521;BME280;4798;41.574;23.734;2022-12-11T09:28:51;93526.06;;;18.32;96.48
9521;BME280;4798;41.574;23.734;2022-12-11T09:31:26;93508.44;;;18.31;91.27
9521;BME280;4798;41.574;23.734;2022-12-11T09:33:58;93480.25;;;18.70;88.78
9521;BME280;4798;41.574;23.734;2022-12-11T09:36:39;93555.84;;;19.02;86.73
9521;BME280;4798;41.574;23.734;2022-12-11T09:39:18;93459.91;;;18.13;87.31
9521;BME280;4798;41.574;23.734;2022-12-11T09:41:55;93547.09;;;18.53;87.70
9521;BME280;4798;41.574;23.734;2022-12-11T09:44:33;93528.19;;;18.46;90.88
9521;BME280;4798;41.574;23.734;2022-12-11T09:47:19;93480.25;;;17.92;90.18
9521;BME280;4798;41.574;23.734;2022-12-11T09:49:52;93503.69;;;18.21;87.36
9521;BME280;4798;41.574;23.734;2022-12-11T09:52:31;93554.13;;;18.87;87.49
9521;BME280;4798;41.574;23.734;2022-12-11T09:55:05;93559.28;;;19.02;86.99
9521;BME280;4798;41.574;23.734;2022-12-11T09:57:45;93554.09;;;19.17;81.91
9521;BME280;4798;41.574;23.734;2022-12-11T10:00:20;93556.19;;;19.00;86.37
9521;BME280;4798;41.574;23.734;2022-12-11T10:03:16;93520.66;;;19.11;83.24
9521;BME280;4798;41.574;23.734;2022-12-11T10:05:54;93539.88;;;19.42;83.64
9521;BME280;4798;41.574;23.734;2022-12-11T10:08:37;93543.00;;;18.88;81.23
9521;BME280;4798;41.574;23.734;2022-12-11T10:11:41;93529.25;;;18.64;75.61
9521;BME280;4798;41.574;23.734;2022-12-11T10:14:25;93533.72;;;18.82;73.31
9521;BME280;4798;41.574;23.734;2022-12-11T10:16:58;93524.03;;;18.74;74.54
9521;BME280;4798;41.574;23.734;2022-12-11T10:19:30;93516.13;;;19.48;68.05
9521;BME280;4798;41.574;23.734;2022-12-11T10:22:00;93504.84;;;19.72;69.03
9521;BME280;4798;41.574;23.734;2022-12-11T10:24:33;93469.56;;;19.77;71.12
9521;BME280;4798;41.574;23.734;2022-12-11T10:27:27;93499.59;;;19.86;67.75
9521;BME280;4798;41.574;23.734;2022-12-11T10:30:06;93487.66;;;19.43;70.77
9521;BME280;4798;41.574;23.734;2022-12-11T10:32:39;93491.84;;;19.37;69.17
9521;BME280;4798;41.574;23.734;2022-12-11T10:35:18;93507.53;;;19.06;68.90
9521;BME280;4798;41.574;23.734;2022-12-11T10:37:47;93504.31;;;18.63;67.72
9521;BME280;4798;41.574;23.734;2022-12-11T10:40:19;93508.75;;;18.78;70.19
9521;BME280;4798;41.574;23.734;2022-12-11T10:42:53;93515.78;;;18.60;69.37
9521;BME280;4798;41.574;23.734;2022-12-11T10:45:21;93521.16;;;18.60;65.73
9521;BME280;4798;41.574;23.734;2022-12-11T10:48:01;93518.88;;;18.62;65.72
9521;BME280;4798;41.574;23.734;2022-12-11T10:50:29;93515.78;;;18.34;66.72
9521;BME280;4798;41.574;23.734;2022-12-11T10:52:57;93516.47;;;17.82;69.19
9521;BME280;4798;41.574;23.734;2022-12-11T10:55:33;93514.31;;;17.91;70.71
9521;BME280;4798;41.574;23.734;2022-12-11T10:58:05;93520.69;;;18.06;68.48
9521;BME280;4798;41.574;23.734;2022-12-11T11:00:35;93509.81;;;17.95;68.04
9521;BME280;4798;41.574;23.734;2022-12-11T11:03:19;93488.28;;;17.92;67.93
9521;BME280;4798;41.574;23.734;2022-12-11T11:05:48;93508.91;;;17.88;68.79
9521;BME280;4798;41.574;23.734;2022-12-11T11:08:18;93494.84;;;17.71;72.54
9521;BME280;4798;41.574;23.734;2022-12-11T11:10:52;93499.72;;;17.89;68.09
9521;BME280;4798;41.574;23.734;2022-12-11T11:13:21;93480.84;;;17.82;69.05
9521;BME280;4798;41.574;23.734;2022-12-11T11:15:57;93510.81;;;18.36;73.35
9521;BME280;4798;41.574;23.734;2022-12-11T11:18:28;93507.63;;;19.13;67.04
9521;BME280;4798;41.574;23.734;2022-12-11T11:20:57;93501.84;;;19.11;65.34
9521;BME280;4798;41.574;23.734;2022-12-11T11:23:27;93495.47;;;18.89;65.86
9521;BME280;4798;41.574;23.734;2022-12-11T11:25:59;93498.88;;;18.56;64.32
9521;BME280;4798;41.574;23.734;2022-12-11T11:28:30;93503.69;;;18.73;67.34
9521;BME280;4798;41.574;23.734;2022-12-11T11:31:03;93484.00;;;18.62;64.61
9521;BME280;4798;41.574;23.734;2022-12-11T11:33:34;93441.13;;;17.87;65.87
9521;BME280;4798;41.574;23.734;2022-12-11T11:36:05;93485.41;;;18.04;65.72
9521;BME280;4798;41.574;23.734;2022-12-11T11:38:36;93454.03;;;17.55;65.70
9521;BME280;4798;41.574;23.734;2022-12-11T11:41:12;93467.47;;;17.59;63.67
9521;BME280;4798;41.574;23.734;2022-12-11T11:43:43;93473.72;;;18.15;67.61
9521;BME280;4798;41.574;23.734;2022-12-11T11:46:16;93478.22;;;18.08;65.73
9521;BME280;4798;41.574;23.734;2022-12-11T11:48:53;93470.09;;;17.78;64.51
9521;BME280;4798;41.574;23.734;2022-12-11T11:51:30;93400.84;;;17.12;65.06
9521;BME280;4798;41.574;23.734;2022-12-11T11:54:02;93479.47;;;17.04;66.98
9521;BME280;4798;41.574;23.734;2022-12-11T11:56:33;93478.97;;;16.98;66.97
9521;BME280;4798;41.574;23.734;2022-12-11T11:59:10;93483.00;;;16.89;67.91
9521;BME280;4798;41.574;23.734;2022-12-11T12:01:41;93464.53;;;16.84;71.07
9521;BME280;4798;41.574;23.734;2022-12-11T12:04:10;93478.06;;;16.72;70.58
9521;BME280;4798;41.574;23.734;2022-12-11T12:06:49;93455.81;;;16.14;70.11
9521;BME280;4798;41.574;23.734;2022-12-11T12:09:36;93477.34;;;16.40;71.17
9521;BME280;4798;41.574;23.734;2022-12-11T12:12:18;93488.31;;;16.00;72.89
9521;BME280;4798;41.574;23.734;2022-12-11T12:15:05;93470.13;;;15.90;76.33
9521;BME280;4798;41.574;23.734;2022-12-11T12:17:46;93461.34;;;16.24;72.50
9521;BME280;4798;41.574;23.734;2022-12-11T12:20:36;93464.47;;;15.76;74.02
9521;BME280;4798;41.574;23.734;2022-12-11T12:23:21;93456.69;;;15.86;73.63
9521;BME280;4798;41.574;23.734;2022-12-11T12:26:04;93471.44;;;15.96;76.45
9521;BME280;4798;41.574;23.734;2022-12-11T12:28:41;93480.03;;;15.74;75.48
9521;BME280;4798;41.574;23.734;2022-12-11T12:31:30;93471.19;;;15.70;75.07
9521;BME280;4798;41.574;23.734;2022-12-11T12:34:09;93466.16;;;15.84;76.85
9521;BME280;4798;41.574;23.734;2022-12-11T12:36:46;93491.50;;;15.59;80.22
9521;BME280;4798;41.574;23.734;2022-12-11T12:39:25;93496.31;;;15.38;84.43
9521;BME280;4798;41.574;23.734;2022-12-11T12:42:01;93494.75;;;15.37;88.84
9521;BME280;4798;41.574;23.734;2022-12-11T12:44:41;93474.75;;;15.15;95.89
9521;BME280;4798;41.574;23.734;2022-12-11T12:47:16;93491.56;;;15.03;96.27
9521;BME280;4798;41.574;23.734;2022-12-11T12:49:47;93499.56;;;15.03;92.79
9521;BME280;4798;41.574;23.734;2022-12-11T12:52:18;93414.13;;;14.56;91.74
9521;BME280;4798;41.574;23.734;2022-12-11T12:54:51;93496.97;;;14.91;98.40
9521;BME280;4798;41.574;23.734;2022-12-11T12:57:36;93495.09;;;14.92;94.96
9521;BME280;4798;41.574;23.734;2022-12-11T13:00:08;93489.44;;;15.09;94.64
9521;BME280;4798;41.574;23.734;2022-12-11T13:02:47;93443.97;;;14.62;100.00
9521;BME280;4798;41.574;23.734;2022-12-11T13:05:20;93503.41;;;14.90;100.00
9521;BME280;4798;41.574;23.734;2022-12-11T13:07:51;93510.53;;;14.86;100.00
9521;BME280;4798;41.574;23.734;2022-12-11T13:10:23;93524.56;;;15.11;100.00
9521;BME280;4798;41.574;23.734;2022-12-11T13:12:53;93532.81;;;15.06;100.00
9521;BME280;4798;41.574;23.734;2022-12-11T13:15:30;93514.16;;;14.66;100.00
9521;BME280;4798;41.574;23.734;2022-12-11T13:18:00;93523.78;;;14.43;100.00
9521;BME280;4798;41.574;23.734;2022-12-11T13:20:30;93534.31;;;14.27;100.00
9521;BME280;4798;41.574;23.734;2022-12-11T13:23:27;93527.41;;;14.50;100.00
9521;BME280;4798;41.574;23.734;2022-12-11T13:25:57;93476.28;;;13.84;100.00
9521;BME280;4798;41.574;23.734;2022-12-11T13:28:28;93546.31;;;14.45;100.00